Time;durP1;ratioP1;P1;durP2;ratioP2;P2;SDS_P1;SDS_P2;PMS_P1;PMS_P2;Temp;Humidity;BMP_temperature;BMP_pressure;BME280_temperature;BME280_humidity;BME280_pressure;Samples;Min_cycle;Max_cycle;Signal;HPM_P1;HPM_P2
2021/09/17 00:02:24;;;;;;;3.53;3.33;;;13.40;99.90;;;;;;5093912;28;20637;-64
2021/09/17 00:04:51;;;;;;;5.23;3.17;;;13.40;99.90;;;;;;5093829;28;20179;-63
2021/09/17 00:07:16;;;;;;;9.63;3.57;;;13.50;99.90;;;;;;5093545;28;20260;-64
2021/09/17 00:09:42;;;;;;;3.63;3.33;;;13.60;99.90;;;;;;5093462;28;20448;-65
2021/09/17 00:12:08;;;;;;;3.63;3.33;;;13.50;99.90;;;;;;5093749;28;20580;-65
2021/09/17 00:14:33;;;;;;;3.83;3.53;;;13.50;99.90;;;;;;5093747;28;20190;-65
2021/09/17 00:16:59;;;;;;;4.47;3.50;;;13.50;99.90;;;;;;5093508;28;20202;-64
2021/09/17 00:19:25;;;;;;;3.30;3.10;;;13.60;99.90;;;;;;5093316;28;20217;-64
2021/09/17 00:21:50;;;;;;;10.63;3.10;;;13.60;99.90;;;;;;5093504;28;20178;-64
2021/09/17 00:24:16;;;;;;;3.90;3.60;;;13.70;99.90;;;;;;5093467;28;20167;-64
2021/09/17 00:26:41;;;;;;;4.93;2.93;;;13.70;99.90;;;;;;5093332;28;20167;-63
2021/09/17 00:29:07;;;;;;;3.10;2.90;;;13.80;99.90;;;;;;5093122;28;20194;-65
2021/09/17 00:31:33;;;;;;;4.27;2.87;;;13.80;99.90;;;;;;5093255;28;20601;-65
2021/09/17 00:33:58;;;;;;;2.87;2.70;;;13.90;99.90;;;;;;5093519;28;20531;-65
2021/09/17 00:36:24;;;;;;;3.10;2.90;;;13.90;99.90;;;;;;5093253;28;20163;-66
2021/09/17 00:38:49;;;;;;;4.53;4.13;;;13.90;99.90;;;;;;5092878;28;20558;-65
2021/09/17 00:41:15;;;;;;;3.90;3.70;;;13.80;99.90;;;;;;5093129;28;20163;-66
2021/09/17 00:43:41;;;;;;;3.90;3.57;;;13.80;99.90;;;;;;5093553;28;20194;-65
2021/09/17 00:46:06;;;;;;;3.93;3.63;;;13.70;99.90;;;;;;5093276;28;20166;-64
2021/09/17 00:48:32;;;;;;;2.63;2.53;;;13.80;99.90;;;;;;5092685;28;20255;-66
2021/09/17 00:50:58;;;;;;;4.80;3.50;;;13.80;99.90;;;;;;5092925;28;20168;-67
2021/09/17 00:53:24;;;;;;;4.17;2.90;;;13.80;99.90;;;;;;5093245;28;20178;-64
2021/09/17 00:55:49;;;;;;;4.27;3.87;;;13.80;99.90;;;;;;5092909;28;20171;-64
2021/09/17 00:58:15;;;;;;;4.40;2.97;;;13.70;99.90;;;;;;5092605;28;20303;-62
2021/09/17 01:00:40;;;;;;;3.40;3.10;;;13.70;99.90;;;;;;5091527;28;20629;-66
2021/09/17 01:03:06;;;;;;;4.57;3.97;;;13.70;99.90;;;;;;5092869;28;20180;-65
2021/09/17 01:05:32;;;;;;;2.80;2.60;;;13.70;99.90;;;;;;5092068;28;20244;-65
2021/09/17 01:07:58;;;;;;;3.90;3.40;;;13.70;99.90;;;;;;5092255;28;20233;-65
2021/09/17 01:10:24;;;;;;;3.70;3.40;;;13.80;99.90;;;;;;5092541;28;20509;-65
2021/09/17 01:12:50;;;;;;;3.23;3.03;;;13.80;99.90;;;;;;5092606;28;20253;-65
2021/09/17 01:15:15;;;;;;;3.33;3.13;;;13.70;99.90;;;;;;5092536;28;20484;-65
2021/09/17 01:17:43;;;;;;;3.30;3.10;;;13.60;99.90;;;;;;5092705;28;20420;-65
2021/09/17 01:20:13;;;;;;;3.67;3.40;;;13.70;99.90;;;;;;5092558;28;20635;-64
2021/09/17 01:22:39;;;;;;;4.00;3.70;;;13.60;99.90;;;;;;5092403;28;20897;-63
2021/09/17 01:25:08;;;;;;;4.40;3.67;;;13.50;99.90;;;;;;5092314;28;20404;-65
2021/09/17 01:27:33;;;;;;;3.03;2.73;;;13.30;99.90;;;;;;5092234;28;20849;-64
2021/09/17 01:29:59;;;;;;;5.70;3.57;;;13.20;99.90;;;;;;5091827;28;20452;-65
2021/09/17 01:32:25;;;;;;;2.93;2.73;;;13.20;99.90;;;;;;5092506;28;20171;-63
2021/09/17 01:34:50;;;;;;;2.63;2.53;;;13.40;99.90;;;;;;5090953;28;20215;-63
2021/09/17 01:37:16;;;;;;;2.60;2.40;;;13.50;99.90;;;;;;5092161;28;20183;-65
2021/09/17 01:39:42;;;;;;;3.53;3.33;;;13.70;99.90;;;;;;5091934;28;20170;-66
2021/09/17 01:42:07;;;;;;;3.50;3.23;;;13.60;99.90;;;;;;5092104;28;20162;-64
2021/09/17 01:44:37;;;;;;;2.97;2.87;;;13.50;99.90;;;;;;5091999;28;20171;-64
2021/09/17 01:47:04;;;;;;;2.80;2.70;;;13.60;99.90;;;;;;5091901;28;20186;-67
2021/09/17 01:49:30;;;;;;;2.67;2.47;;;13.60;99.90;;;;;;5092467;28;20452;-65
2021/09/17 01:51:55;;;;;;;4.17;3.87;;;13.80;99.90;;;;;;5092015;28;20396;-65
2021/09/17 01:54:21;;;;;;;3.13;2.83;;;13.40;99.90;;;;;;5091949;28;20162;-64
2021/09/17 01:56:46;;;;;;;4.53;3.43;;;13.20;99.90;;;;;;5091934;28;20205;-64
2021/09/17 01:59:12;;;;;;;3.80;3.50;;;13.10;99.90;;;;;;5091638;28;20543;-65
2021/09/17 02:01:38;;;;;;;3.63;3.43;;;13.10;99.90;;;;;;5091879;28;20163;-65
2021/09/17 02:04:03;;;;;;;5.13;4.67;;;13.00;99.90;;;;;;5091852;28;20664;-65
2021/09/17 02:06:29;;;;;;;5.93;5.53;;;12.80;99.90;;;;;;5091837;28;20166;-65
2021/09/17 02:08:56;;;;;;;3.17;2.97;;;12.80;99.90;;;;;;5091360;28;20206;-65
2021/09/17 02:11:23;;;;;;;2.63;2.53;;;12.80;99.90;;;;;;5091709;28;20171;-64
2021/09/17 02:13:48;;;;;;;4.93;4.53;;;13.20;99.90;;;;;;5091763;28;20404;-65
2021/09/17 02:16:14;;;;;;;5.57;3.67;;;13.10;99.90;;;;;;5091881;28;20396;-65
2021/09/17 02:18:39;;;;;;;4.20;3.90;;;13.00;99.90;;;;;;5094615;28;20194;-65
2021/09/17 02:21:05;;;;;;;4.60;4.20;;;12.80;99.90;;;;;;5095922;28;20163;-64
2021/09/17 02:23:31;;;;;;;4.70;3.83;;;12.70;99.90;;;;;;5095921;28;20201;-66
2021/09/17 02:25:56;;;;;;;3.10;2.90;;;12.60;99.90;;;;;;5094682;28;20232;-65
2021/09/17 02:28:22;;;;;;;4.60;4.20;;;12.80;99.90;;;;;;5095393;28;20243;-65
2021/09/17 02:30:48;;;;;;;4.60;4.20;;;12.70;99.90;;;;;;5095678;28;20678;-64
2021/09/17 02:33:14;;;;;;;3.97;3.67;;;12.60;99.90;;;;;;5095677;28;20171;-64
2021/09/17 02:35:40;;;;;;;4.00;3.67;;;12.60;99.90;;;;;;5095860;28;20439;-64
2021/09/17 02:38:06;;;;;;;6.47;5.80;;;12.60;99.90;;;;;;5095452;28;20431;-64
2021/09/17 02:40:31;;;;;;;4.03;3.63;;;12.40;99.90;;;;;;5095503;28;20475;-64
2021/09/17 02:42:57;;;;;;;4.80;4.40;;;12.30;99.90;;;;;;5095434;28;20181;-65
2021/09/17 02:45:23;;;;;;;3.67;3.10;;;12.20;99.90;;;;;;5095489;28;20170;-64
2021/09/17 02:47:49;;;;;;;3.63;3.33;;;12.20;99.90;;;;;;5095272;28;20537;-64
2021/09/17 02:50:15;;;;;;;4.03;3.73;;;12.30;99.90;;;;;;5095076;28;20247;-65
2021/09/17 02:52:41;;;;;;;5.73;5.27;;;12.30;99.90;;;;;;5095320;28;20432;-65
2021/09/17 02:55:09;;;;;;;4.53;4.23;;;12.20;99.90;;;;;;5095256;28;20432;-64
2021/09/17 02:57:36;;;;;;;4.60;4.30;;;12.00;99.90;;;;;;5095290;28;20278;-65
2021/09/17 03:00:05;;;;;;;4.30;3.90;;;12.00;99.90;;;;;;5094806;28;20908;-65
2021/09/17 03:02:30;;;;;;;5.60;5.10;;;11.90;99.90;;;;;;5095049;28;20393;-64
2021/09/17 03:04:56;;;;;;;4.43;4.03;;;11.90;99.90;;;;;;5095427;28;20427;-64
2021/09/17 03:07:21;;;;;;;5.27;4.87;;;12.00;99.90;;;;;;5094896;28;20399;-64
2021/09/17 03:09:47;;;;;;;3.47;3.23;;;12.00;99.90;;;;;;5094456;28;20186;-65
2021/09/17 03:12:13;;;;;;;4.10;3.77;;;12.10;99.90;;;;;;5094922;28;20169;-65
2021/09/17 03:14:38;;;;;;;6.00;5.50;;;12.10;99.90;;;;;;5094904;28;20515;-64
2021/09/17 03:17:04;;;;;;;4.50;4.10;;;12.00;99.90;;;;;;5094708;28;20274;-64
2021/09/17 03:19:29;;;;;;;3.97;3.47;;;12.20;99.90;;;;;;5094525;28;20170;-64
2021/09/17 03:21:59;;;;;;;2.90;2.73;;;12.30;99.90;;;;;;5094742;28;20718;-64
2021/09/17 03:24:24;;;;;;;2.90;2.70;;;12.40;99.90;;;;;;5094597;28;20166;-64
2021/09/17 03:26:50;;;;;;;3.33;3.03;;;12.40;99.90;;;;;;5094628;28;20492;-64
2021/09/17 03:29:15;;;;;;;3.33;3.10;;;12.80;99.90;;;;;;5093878;28;20674;-64
2021/09/17 03:31:41;;;;;;;5.57;3.27;;;13.10;99.90;;;;;;5094534;28;20198;-64
2021/09/17 03:34:06;;;;;;;3.57;3.27;;;13.30;99.90;;;;;;5094467;28;20681;-65
2021/09/17 03:36:32;;;;;;;4.07;3.80;;;13.20;99.90;;;;;;5094530;28;20163;-64
2021/09/17 03:38:58;;;;;;;4.17;3.77;;;13.00;99.90;;;;;;5093937;28;20655;-64
2021/09/17 03:41:24;;;;;;;3.60;3.30;;;12.90;99.90;;;;;;5094416;28;20179;-65
2021/09/17 03:43:50;;;;;;;3.10;2.83;;;12.90;99.90;;;;;;5094395;28;20167;-64
2021/09/17 03:46:15;;;;;;;4.03;3.70;;;12.90;99.90;;;;;;5094348;28;20469;-64
2021/09/17 03:48:41;;;;;;;4.80;3.87;;;13.00;99.90;;;;;;5093876;28;20475;-64
2021/09/17 03:51:07;;;;;;;6.80;5.97;;;12.90;99.90;;;;;;5094221;28;20174;-64
2021/09/17 03:53:33;;;;;;;6.30;5.70;;;12.80;99.90;;;;;;5094060;28;20400;-64
2021/09/17 03:55:58;;;;;;;4.03;3.83;;;12.70;99.90;;;;;;5094127;28;20171;-64
2021/09/17 03:58:24;;;;;;;7.77;4.37;;;12.70;99.90;;;;;;5093982;28;20182;-65
2021/09/17 04:00:50;;;;;;;4.67;3.90;;;12.60;99.90;;;;;;5093957;28;20639;-64
2021/09/17 04:03:15;;;;;;;3.67;3.37;;;12.80;99.90;;;;;;5093952;28;20166;-64
2021/09/17 04:05:41;;;;;;;4.33;3.93;;;12.80;99.90;;;;;;5093949;28;20193;-65
2021/09/17 04:08:06;;;;;;;3.80;3.50;;;12.70;99.90;;;;;;5093388;28;20579;-64
2021/09/17 04:10:32;;;;;;;4.20;3.90;;;12.70;99.90;;;;;;5093707;28;20239;-64
2021/09/17 04:12:58;;;;;;;3.27;3.13;;;12.80;99.90;;;;;;5093960;28;20167;-64
2021/09/17 04:15:23;;;;;;;2.80;2.60;;;12.90;99.90;;;;;;5093817;28;20206;-64
2021/09/17 04:17:49;;;;;;;3.40;3.20;;;12.90;99.90;;;;;;5093652;28;20187;-64
2021/09/17 04:20:15;;;;;;;3.00;2.80;;;13.00;99.90;;;;;;5093332;28;20181;-65
2021/09/17 04:22:41;;;;;;;3.50;3.23;;;13.00;99.90;;;;;;5093553;28;20174;-64
2021/09/17 04:25:09;;;;;;;3.03;2.83;;;13.00;99.90;;;;;;5093556;28;20205;-64
2021/09/17 04:27:35;;;;;;;4.73;3.43;;;12.90;99.90;;;;;;5093457;28;20413;-64
2021/09/17 04:30:03;;;;;;;3.60;3.30;;;12.90;99.90;;;;;;5092961;28;20452;-64
2021/09/17 04:32:28;;;;;;;3.50;3.20;;;13.00;99.90;;;;;;5093284;28;20930;-64
2021/09/17 04:34:54;;;;;;;3.80;3.40;;;12.90;99.90;;;;;;5093367;28;20429;-65
2021/09/17 04:37:19;;;;;;;3.27;3.07;;;12.90;99.90;;;;;;5093314;28;20396;-65
2021/09/17 04:39:45;;;;;;;3.13;2.93;;;13.00;99.90;;;;;;5092406;28;20576;-64
2021/09/17 04:42:11;;;;;;;3.23;2.93;;;13.00;99.90;;;;;;5093249;28;20250;-64
2021/09/17 04:44:36;;;;;;;3.70;3.40;;;13.00;99.90;;;;;;5093230;28;20171;-64
2021/09/17 04:47:02;;;;;;;3.83;3.53;;;13.10;99.90;;;;;;5093082;28;20235;-65
2021/09/17 04:49:28;;;;;;;3.60;3.27;;;13.10;99.90;;;;;;5092692;28;20213;-65
2021/09/17 04:51:53;;;;;;;3.60;3.30;;;13.10;99.90;;;;;;5092918;28;20495;-64
2021/09/17 04:54:19;;;;;;;4.37;3.97;;;13.00;99.90;;;;;;5093034;28;20233;-64
2021/09/17 04:56:44;;;;;;;3.40;3.10;;;13.00;99.90;;;;;;5093057;28;20170;-64
2021/09/17 04:59:11;;;;;;;3.60;3.30;;;13.10;99.90;;;;;;5092678;28;20175;-65
2021/09/17 05:01:37;;;;;;;2.70;2.50;;;13.10;99.90;;;;;;5092748;28;20173;-64
2021/09/17 05:04:03;;;;;;;3.77;3.43;;;13.10;99.90;;;;;;5093289;28;20408;-65
2021/09/17 05:06:31;;;;;;;4.47;3.50;;;13.10;99.90;;;;;;5092674;28;20774;-65
2021/09/17 05:09:00;;;;;;;2.97;2.77;;;13.10;99.90;;;;;;5092215;28;20289;-65
2021/09/17 05:11:26;;;;;;;3.87;3.57;;;13.10;99.90;;;;;;5092646;28;20432;-64
2021/09/17 05:13:52;;;;;;;3.33;3.03;;;13.10;99.90;;;;;;5092685;28;20620;-64
2021/09/17 05:16:18;;;;;;;3.63;3.33;;;13.20;99.90;;;;;;5092708;28;20208;-65
2021/09/17 05:18:43;;;;;;;3.90;3.60;;;13.20;99.90;;;;;;5092189;28;20223;-65
2021/09/17 05:21:09;;;;;;;4.03;3.40;;;13.10;99.90;;;;;;5092702;28;20432;-64
2021/09/17 05:23:35;;;;;;;6.63;6.03;;;13.20;99.90;;;;;;5092531;28;20170;-64
2021/09/17 05:26:02;;;;;;;4.13;3.40;;;12.70;99.90;;;;;;5092370;28;20774;-65
2021/09/17 05:28:28;;;;;;;3.83;3.53;;;12.80;99.90;;;;;;5092337;28;20214;-64
2021/09/17 05:30:54;;;;;;;2.60;2.40;;;12.90;99.90;;;;;;5092237;28;20451;-65
2021/09/17 05:33:19;;;;;;;3.43;3.13;;;13.00;99.90;;;;;;5092395;28;20396;-65
2021/09/17 05:35:45;;;;;;;4.07;3.47;;;13.10;99.90;;;;;;5092222;28;20241;-64
2021/09/17 05:38:10;;;;;;;3.40;3.10;;;13.10;99.90;;;;;;5091954;28;20273;-64
2021/09/17 05:40:36;;;;;;;4.37;3.97;;;13.10;99.90;;;;;;5092193;28;20166;-64
2021/09/17 05:43:02;;;;;;;3.43;3.20;;;13.10;99.90;;;;;;5092328;28;20177;-65
2021/09/17 05:45:27;;;;;;;4.40;4.00;;;13.20;99.90;;;;;;5092093;28;20666;-65
2021/09/17 05:47:53;;;;;;;4.03;3.73;;;13.20;99.90;;;;;;5091951;28;20182;-64
2021/09/17 05:50:18;;;;;;;6.10;5.60;;;13.20;99.90;;;;;;5091610;28;20186;-64
2021/09/17 05:52:45;;;;;;;3.17;2.97;;;13.10;99.90;;;;;;5091934;28;20215;-65
2021/09/17 05:55:11;;;;;;;4.50;4.00;;;13.20;99.90;;;;;;5092059;28;20477;-64
2021/09/17 05:57:36;;;;;;;3.33;3.13;;;13.20;99.90;;;;;;5092006;28;20190;-64
2021/09/17 06:00:04;;;;;;;6.53;3.57;;;13.30;99.90;;;;;;5091927;28;20174;-65
2021/09/17 06:02:29;;;;;;;4.07;2.90;;;13.40;99.90;;;;;;5091927;28;20175;-65
2021/09/17 06:04:55;;;;;;;5.93;5.43;;;13.40;99.90;;;;;;5091748;28;20473;-65
2021/09/17 06:07:20;;;;;;;4.87;4.47;;;13.30;99.90;;;;;;5091815;28;20202;-64
2021/09/17 06:09:46;;;;;;;4.90;4.13;;;13.30;99.90;;;;;;5091471;28;20198;-64
2021/09/17 06:12:11;;;;;;;3.73;3.43;;;13.20;99.90;;;;;;5091903;28;20175;-65
2021/09/17 06:14:37;;;;;;;3.23;3.03;;;13.20;99.90;;;;;;5091873;28;20181;-64
2021/09/17 06:17:03;;;;;;;7.20;6.00;;;13.40;99.90;;;;;;5091759;28;20606;-64
2021/09/17 06:19:28;;;;;;;5.67;5.13;;;13.40;99.90;;;;;;5091414;28;20190;-65
2021/09/17 06:21:54;;;;;;;6.40;5.77;;;13.50;99.90;;;;;;5091727;28;20538;-65
2021/09/17 06:24:20;;;;;;;5.97;5.43;;;13.40;99.90;;;;;;5091760;28;20209;-64
2021/09/17 06:26:45;;;;;;;6.30;5.70;;;13.40;99.90;;;;;;5091628;28;20170;-64
2021/09/17 06:29:11;;;;;;;5.30;4.90;;;13.50;99.90;;;;;;5091344;28;20194;-65
2021/09/17 06:31:37;;;;;;;4.30;3.90;;;13.60;99.90;;;;;;5091653;28;20542;-64
2021/09/17 06:34:04;;;;;;;4.40;4.10;;;13.80;99.90;;;;;;5091550;28;20206;-64
2021/09/17 06:36:30;;;;;;;2.83;2.73;;;13.90;99.90;;;;;;5091661;28;20404;-65
2021/09/17 06:38:56;;;;;;;4.13;3.73;;;14.00;99.90;;;;;;5091233;28;20435;-65
2021/09/17 06:41:22;;;;;;;3.53;3.33;;;14.00;99.90;;;;;;5091422;28;20179;-64
2021/09/17 06:43:48;;;;;;;3.90;3.37;;;14.10;99.90;;;;;;5091569;28;20401;-65
2021/09/17 06:46:14;;;;;;;6.03;4.00;;;14.10;99.90;;;;;;5091533;28;20415;-65
2021/09/17 06:48:40;;;;;;;4.60;4.27;;;14.20;99.90;;;;;;5091146;28;20187;-64
2021/09/17 06:51:06;;;;;;;6.87;6.27;;;14.10;99.90;;;;;;5091455;28;20461;-65
2021/09/17 06:53:32;;;;;;;5.10;4.57;;;14.10;99.90;;;;;;5091461;28;20171;-65
2021/09/17 06:55:58;;;;;;;4.83;4.40;;;14.10;99.90;;;;;;5091619;28;20408;-65
2021/09/17 06:58:31;;;;;;;3.37;3.07;;;14.10;99.90;;;;;;5091142;28;20420;-65
2021/09/17 07:00:57;;;;;;;4.63;4.23;;;14.30;99.90;;;;;;5091342;28;20239;-65
2021/09/17 07:03:23;;;;;;;5.67;5.17;;;14.40;99.90;;;;;;5092240;28;20939;-64
2021/09/17 07:05:48;;;;;;;8.50;7.70;;;14.40;99.90;;;;;;5095109;28;20413;-65
2021/09/17 07:08:15;;;;;;;4.57;4.07;;;14.30;99.90;;;;;;5094679;28;20655;-65
2021/09/17 07:10:40;;;;;;;6.90;5.80;;;14.40;99.90;;;;;;5095134;28;20202;-65
2021/09/17 07:13:07;;;;;;;6.30;5.80;;;14.50;99.90;;;;;;5095124;28;20530;-65
2021/09/17 07:15:33;;;;;;;6.33;5.83;;;14.50;99.90;;;;;;5094964;28;20179;-64
2021/09/17 07:18:02;;;;;;;10.27;8.67;;;14.50;99.90;;;;;;5094927;28;20424;-65
2021/09/17 07:20:27;;;;;;;5.90;5.40;;;14.60;99.90;;;;;;5094900;28;20751;-65
2021/09/17 07:22:53;;;;;;;7.27;6.53;;;14.70;99.90;;;;;;5094833;28;20404;-65
2021/09/17 07:25:19;;;;;;;11.30;10.20;;;14.80;99.90;;;;;;5094813;28;20170;-66
2021/09/17 07:27:45;;;;;;;6.93;6.30;;;14.80;99.90;;;;;;5094661;28;20190;-65
2021/09/17 07:30:12;;;;;;;6.60;5.93;;;14.80;99.90;;;;;;5094196;28;20509;-65
2021/09/17 07:32:38;;;;;;;8.97;8.17;;;14.90;99.90;;;;;;5094630;28;20836;-65
2021/09/17 07:35:04;;;;;;;10.00;9.00;;;15.10;99.90;;;;;;5094779;28;20487;-65
2021/09/17 07:37:30;;;;;;;13.93;12.50;;;15.10;99.90;;;;;;5094508;28;20265;-65
2021/09/17 07:39:56;;;;;;;14.00;12.60;;;15.10;99.90;;;;;;5094203;28;20550;-65
2021/09/17 07:42:22;;;;;;;21.40;16.50;;;15.10;99.90;;;;;;5094439;28;20458;-65
2021/09/17 07:44:47;;;;;;;12.17;10.80;;;15.10;99.90;;;;;;5094300;28;20201;-65
2021/09/17 07:47:13;;;;;;;9.07;8.10;;;15.20;99.90;;;;;;5094222;28;20212;-65
2021/09/17 07:49:39;;;;;;;16.03;13.27;;;15.30;99.90;;;;;;5094745;28;20202;-63
2021/09/17 07:52:04;;;;;;;19.83;15.30;;;15.40;99.90;;;;;;5094191;28;20649;-63
2021/09/17 07:54:30;;;;;;;10.37;9.00;;;15.40;99.90;;;;;;5094225;28;20163;-63
2021/09/17 07:56:56;;;;;;;12.57;11.27;;;15.50;99.90;;;;;;5093930;28;20411;-63
2021/09/17 07:59:22;;;;;;;15.30;13.73;;;15.60;99.90;;;;;;5093734;28;20170;-63
2021/09/17 08:01:47;;;;;;;20.97;17.17;;;15.70;99.90;;;;;;5093940;28;20412;-66
2021/09/17 08:04:13;;;;;;;18.90;17.00;;;15.80;99.90;;;;;;5094207;28;20558;-63
2021/09/17 08:06:39;;;;;;;16.90;15.03;;;15.90;99.90;;;;;;5093872;28;20174;-63
2021/09/17 08:09:06;;;;;;;14.13;12.47;;;16.00;99.90;;;;;;5093527;28;20194;-63
2021/09/17 08:11:35;;;;;;;22.17;19.83;;;16.00;99.90;;;;;;5093848;28;20251;-64
2021/09/17 08:14:01;;;;;;;33.63;13.13;;;16.20;99.90;;;;;;5093461;28;20489;-63
2021/09/17 08:16:27;;;;;;;14.87;13.30;;;16.30;99.90;;;;;;5092982;28;20971;-63
2021/09/17 08:18:53;;;;;;;16.30;12.80;;;16.40;99.90;;;;;;5093387;28;20445;-64
2021/09/17 08:21:18;;;;;;;16.70;14.90;;;16.50;99.90;;;;;;5093634;28;20212;-66
2021/09/17 08:23:44;;;;;;;19.60;14.27;;;16.60;99.90;;;;;;5093642;28;20249;-63
2021/09/17 08:26:10;;;;;;;8.70;7.50;;;16.60;99.90;;;;;;5093651;28;20162;-63
2021/09/17 08:28:35;;;;;;;17.67;13.50;;;16.80;99.90;;;;;;5093115;28;20545;-63
2021/09/17 08:31:03;;;;;;;16.90;13.53;;;17.00;99.90;;;;;;5093356;28;20868;-63
2021/09/17 08:33:29;;;;;;;18.80;17.00;;;17.10;99.90;;;;;;5093505;28;20216;-63
2021/09/17 08:35:55;;;;;;;10.77;9.67;;;17.20;99.90;;;;;;5093346;28;20408;-65
2021/09/17 08:38:21;;;;;;;18.20;15.40;;;17.20;99.90;;;;;;5093022;28;20416;-67
2021/09/17 08:40:50;;;;;;;18.87;15.90;;;17.40;99.90;;;;;;5093190;28;20254;-63
2021/09/17 08:43:16;;;;;;;19.80;16.40;;;17.40;99.90;;;;;;5093014;28;20178;-64
2021/09/17 08:45:41;;;;;;;17.90;14.83;;;17.50;99.90;;;;;;5093445;28;20458;-63
2021/09/17 08:48:09;;;;;;;16.93;13.90;;;17.60;99.90;;;;;;5092799;28;20581;-67
2021/09/17 08:50:35;;;;;;;17.93;16.00;;;17.90;99.90;;;;;;5092979;28;20202;-63
2021/09/17 08:53:01;;;;;;;17.53;15.70;;;18.00;99.90;;;;;;5093047;28;20543;-66
2021/09/17 08:55:27;;;;;;;19.80;15.80;;;18.20;99.90;;;;;;5093035;28;20163;-63
2021/09/17 08:57:52;;;;;;;25.93;17.70;;;18.40;99.90;;;;;;5092991;28;20435;-67
2021/09/17 09:00:27;;;;;;;17.77;15.50;;;18.40;99.90;;;;;;5092669;28;20170;-64
2021/09/17 09:02:56;;;;;;;19.23;15.50;;;18.50;99.90;;;;;;5092899;28;20200;-64
2021/09/17 09:05:29;;;;;;;16.23;14.53;;;18.60;99.90;;;;;;5092882;28;20905;-63
2021/09/17 09:07:55;;;;;;;18.50;16.60;;;18.70;99.90;;;;;;5092573;28;20452;-63
2021/09/17 09:10:21;;;;;;;21.73;15.27;;;18.90;99.90;;;;;;5092326;28;20866;-63
2021/09/17 09:12:49;;;;;;;18.63;15.07;;;18.90;99.90;;;;;;5092645;28;20254;-63
2021/09/17 09:15:26;;;;;;;16.13;14.00;;;19.00;99.90;;;;;;5092706;28;20489;-63
2021/09/17 09:17:55;;;;;;;15.23;13.73;;;19.30;99.90;;;;;;5092481;28;20424;-63
2021/09/17 09:20:26;;;;;;;15.53;13.90;;;19.40;99.90;;;;;;5092348;28;20408;-63
2021/09/17 09:23:20;;;;;;;14.33;12.83;;;19.50;99.80;;;;;;5092463;28;20405;-64
2021/09/17 09:26:02;;;;;;;15.00;11.53;;;19.60;99.90;;;;;;5092102;28;20921;-63
2021/09/17 09:28:45;;;;;;;15.10;12.97;;;19.70;99.30;;;;;;5092099;28;20503;-63
2021/09/17 09:31:16;;;;;;;11.90;10.70;;;20.00;99.60;;;;;;5092100;28;20955;-64
2021/09/17 09:33:47;;;;;;;11.50;10.30;;;20.50;99.90;;;;;;5092573;28;20404;-63
2021/09/17 09:36:18;;;;;;;11.60;10.07;;;20.70;97.60;;;;;;5092384;28;20401;-64
2021/09/17 09:38:54;;;;;;;10.93;10.00;;;20.60;95.10;;;;;;5091827;28;20417;-64
2021/09/17 09:41:31;;;;;;;14.13;11.47;;;20.70;96.40;;;;;;5092291;28;20784;-64
2021/09/17 09:44:02;;;;;;;12.80;11.50;;;20.80;96.10;;;;;;5092245;28;20400;-67
2021/09/17 09:46:38;;;;;;;12.50;11.23;;;20.80;94.30;;;;;;5092227;28;20488;-66
2021/09/17 09:49:07;;;;;;;10.63;9.53;;;20.90;94.90;;;;;;5092249;28;20412;-64
2021/09/17 09:51:56;;;;;;;10.93;9.73;;;21.00;94.70;;;;;;5092078;28;20400;-64
2021/09/17 09:54:24;;;;;;;12.63;10.80;;;21.00;94.60;;;;;;5092051;28;20483;-66
2021/09/17 09:56:52;;;;;;;10.00;8.63;;;21.00;94.30;;;;;;5091958;28;20404;-65
2021/09/17 09:59:24;;;;;;;8.23;7.00;;;21.20;93.10;;;;;;5091733;28;20412;-63
2021/09/17 10:01:50;;;;;;;8.10;7.30;;;21.30;94.00;;;;;;5091977;28;20908;-64
2021/09/17 10:04:19;;;;;;;6.83;6.23;;;21.50;94.30;;;;;;5091988;28;20416;-66
2021/09/17 10:06:45;;;;;;;9.10;7.53;;;21.90;94.10;;;;;;5091933;28;20416;-63
2021/09/17 10:09:11;;;;;;;7.20;6.50;;;21.90;92.80;;;;;;5091460;28;20397;-63
2021/09/17 10:11:39;;;;;;;9.03;6.33;;;22.20;93.70;;;;;;5092053;28;20163;-64
2021/09/17 10:14:08;;;;;;;9.50;8.43;;;22.90;95.70;;;;;;5091884;28;20401;-64
2021/09/17 10:16:35;;;;;;;8.90;8.10;;;23.30;94.30;;;;;;5091862;28;20457;-64
2021/09/17 10:19:01;;;;;;;10.50;9.40;;;24.00;95.00;;;;;;5091342;28;20458;-67
2021/09/17 10:21:45;;;;;;;10.90;9.77;;;24.50;92.40;;;;;;5091753;28;20791;-64
2021/09/17 10:24:26;;;;;;;9.47;8.63;;;24.30;92.00;;;;;;5091775;28;20393;-66
2021/09/17 10:27:11;;;;;;;10.97;9.10;;;24.30;92.10;;;;;;5091723;28;20406;-66
2021/09/17 10:30:05;;;;;;;13.33;9.10;;;24.10;91.70;;;;;;5091291;28;20474;-66
2021/09/17 10:32:41;;;;;;;8.77;8.07;;;24.20;92.30;;;;;;5091103;28;20428;-66
2021/09/17 10:35:12;;;;;;;7.30;6.70;;;24.40;91.90;;;;;;5091729;28;20404;-66
2021/09/17 10:37:55;;;;;;;6.43;5.87;;;24.90;92.30;;;;;;5091518;28;20424;-66
2021/09/17 10:40:33;;;;;;;7.67;6.97;;;25.50;89.30;;;;;;5095469;28;20412;-64
2021/09/17 10:43:11;;;;;;;9.20;6.53;;;25.50;89.20;;;;;;5094782;28;20752;-64
2021/09/17 10:45:49;;;;;;;7.63;6.77;;;26.00;92.20;;;;;;5095434;28;20408;-66
2021/09/17 10:48:17;;;;;;;6.20;5.60;;;26.40;91.60;;;;;;5095013;28;20432;-67
2021/09/17 10:50:50;;;;;;;6.70;6.17;;;26.30;86.00;;;;;;5095973;28;20476;-68
2021/09/17 10:53:41;;;;;;;7.53;6.93;;;26.40;80.60;;;;;;5095376;28;20393;-67
2021/09/17 10:56:14;;;;;;;7.07;6.37;;;26.10;83.80;;;;;;5095307;28;20458;-66
2021/09/17 10:59:06;;;;;;;5.80;5.30;;;26.20;88.90;;;;;;5094954;28;20416;-66
2021/09/17 11:02:01;;;;;;;6.90;6.30;;;26.80;85.40;;;;;;5095149;28;20439;-67
2021/09/17 11:04:29;;;;;;;5.50;5.00;;;26.90;81.20;;;;;;5095358;28;20491;-68
2021/09/17 11:07:15;;;;;;;7.60;6.70;;;27.40;88.20;;;;;;5095333;28;20450;-66
2021/09/17 11:09:41;;;;;;;6.63;6.03;;;27.70;82.60;;;;;;5097417;28;20448;-68
2021/09/17 11:12:17;;;;;;;6.30;5.87;;;27.30;80.20;;;;;;5096333;28;20400;-66
2021/09/17 11:14:43;;;;;;;5.37;4.97;;;26.60;79.20;;;;;;5095516;28;20161;-67
2021/09/17 11:17:09;;;;;;;4.53;4.13;;;26.10;83.30;;;;;;5094957;28;20827;-69
2021/09/17 11:19:34;;;;;;;4.03;3.83;;;25.60;85.10;;;;;;5094570;28;20635;-67
2021/09/17 11:22:01;;;;;;;8.50;5.90;;;25.10;84.80;;;;;;5094747;28;20231;-67
2021/09/17 11:24:28;;;;;;;6.37;5.77;;;24.60;83.40;;;;;;5094967;28;20163;-67
2021/09/17 11:26:56;;;;;;;5.40;5.00;;;24.30;84.80;;;;;;5095002;28;20436;-67
2021/09/17 11:29:25;;;;;;;5.73;5.30;;;23.90;90.10;;;;;;5094362;28;20979;-68
2021/09/17 11:31:56;;;;;;;5.87;5.27;;;23.60;87.30;;;;;;5094625;28;20405;-67
2021/09/17 11:34:24;;;;;;;5.30;4.80;;;23.50;90.50;;;;;;5094717;28;20397;-66
2021/09/17 11:36:55;;;;;;;4.33;4.03;;;23.40;87.80;;;;;;5094919;28;20915;-68
2021/09/17 11:39:41;;;;;;;3.60;3.30;;;23.10;86.50;;;;;;5097840;28;20459;-66
2021/09/17 11:42:14;;;;;;;4.07;3.83;;;23.10;90.10;;;;;;5094345;28;20420;-65
2021/09/17 11:44:41;;;;;;;4.77;3.60;;;22.90;90.20;;;;;;5094534;28;20433;-67
2021/09/17 11:47:12;;;;;;;4.83;4.43;;;23.10;90.30;;;;;;5094889;28;20425;-68
2021/09/17 11:49:42;;;;;;;4.70;4.40;;;24.10;91.10;;;;;;5094990;28;20455;-67
2021/09/17 11:52:13;;;;;;;5.43;5.03;;;25.30;93.40;;;;;;5100716;28;20409;-68
2021/09/17 11:54:39;;;;;;;4.53;4.23;;;26.10;85.10;;;;;;5098339;28;20454;-68
2021/09/17 11:57:11;;;;;;;5.20;3.87;;;26.70;82.20;;;;;;5094276;28;20425;-69
2021/09/17 11:59:36;;;;;;;6.23;4.53;;;27.60;86.70;;;;;;5095201;28;20407;-69
2021/09/17 12:02:19;;;;;;;4.57;4.20;;;28.40;80.00;;;;;;5097724;28;20984;-70
2021/09/17 12:04:52;;;;;;;3.67;3.40;;;28.80;81.10;;;;;;5098458;28;20236;-69
2021/09/17 12:07:19;;;;;;;4.53;4.20;;;28.50;73.70;;;;;;5096156;28;20456;-69
2021/09/17 12:09:45;;;;;;;8.53;4.93;;;27.90;74.00;;;;;;5094051;28;21013;-70
2021/09/17 12:12:12;;;;;;;6.67;6.17;;;27.50;77.60;;;;;;5096102;28;20511;-70
2021/09/17 12:14:39;;;;;;;7.13;6.53;;;26.90;77.10;;;;;;5097235;28;20488;-69
2021/09/17 12:17:09;;;;;;;6.03;5.50;;;26.30;78.10;;;;;;5095896;28;20534;-67
2021/09/17 12:19:54;;;;;;;5.40;5.00;;;26.00;81.70;;;;;;5095332;28;20412;-70
2021/09/17 12:22:34;;;;;;;5.17;4.77;;;25.60;82.40;;;;;;5098347;28;20411;-69
2021/09/17 12:25:17;;;;;;;6.60;6.13;;;25.30;83.20;;;;;;5097638;28;20401;-69
2021/09/17 12:27:54;;;;;;;8.30;7.63;;;25.00;82.70;;;;;;5096189;28;20423;-68
2021/09/17 12:30:20;;;;;;;7.93;7.13;;;24.70;83.40;;;;;;5095447;28;20561;-68
2021/09/17 12:33:09;;;;;;;7.07;6.40;;;24.70;85.00;;;;;;5093840;28;20459;-68
2021/09/17 12:35:35;;;;;;;8.77;7.20;;;25.70;83.90;;;;;;5093456;28;20228;-68
2021/09/17 12:38:03;;;;;;;6.50;6.00;;;26.70;78.70;;;;;;5093002;28;20421;-68
2021/09/17 12:40:31;;;;;;;5.30;4.80;;;27.70;79.40;;;;;;5093363;28;20487;-68
2021/09/17 12:43:11;;;;;;;5.27;4.87;;;28.30;77.60;;;;;;5093292;28;20913;-68
2021/09/17 12:45:43;;;;;;;6.63;5.23;;;28.70;74.30;;;;;;5093278;28;20401;-68
2021/09/17 12:48:10;;;;;;;5.03;4.67;;;28.40;73.20;;;;;;5093065;28;20459;-68